createdAt,value
2018-04-26T00:02:08.123Z,69.30
2018-04-26T00:04:36.198Z,69.90
2018-04-26T00:07:05.129Z,70.80
2018-04-26T00:09:33.332Z,70.80
2018-04-26T00:12:01.468Z,71.10
2018-04-26T00:14:29.797Z,71.00
2018-04-26T00:16:57.537Z,71.20
2018-04-26T00:19:25.757Z,71.50
2018-04-26T00:21:53.698Z,72.10
2018-04-26T00:24:21.953Z,72.50
2018-04-26T00:26:49.895Z,72.50
2018-04-26T00:29:17.856Z,72.30
2018-04-26T00:31:45.702Z,72.10
2018-04-26T00:34:13.635Z,71.50
2018-04-26T00:36:41.433Z,71.20
2018-04-26T00:39:09.253Z,70.90
2018-04-26T00:41:37.193Z,70.10
2018-04-26T00:44:05.213Z,70.50
2018-04-26T00:46:33.015Z,72.30
2018-04-26T00:49:00.935Z,72.60
2018-04-26T00:51:40.694Z,73.30
2018-04-26T00:54:08.714Z,74.00
2018-04-26T00:56:36.634Z,73.80
2018-04-26T00:59:04.634Z,74.30
2018-04-26T01:01:32.453Z,74.80
2018-04-26T01:04:00.280Z,76.00
2018-04-26T01:06:28.373Z,76.40
2018-04-26T01:08:56.253Z,76.70
2018-04-26T01:11:24.093Z,76.40
2018-04-26T01:13:52.253Z,78.30
2018-04-26T01:16:20.913Z,79.40
2018-04-26T01:18:48.857Z,79.40
2018-04-26T01:21:16.813Z,79.30
2018-04-26T01:23:44.573Z,79.90
2018-04-26T01:26:12.633Z,80.60
2018-04-26T01:28:40.594Z,80.50
2018-04-26T01:31:08.413Z,80.60
2018-04-26T01:33:37.115Z,80.90
2018-04-26T01:36:05.273Z,80.90
2018-04-26T01:38:33.314Z,81.20
2018-04-26T01:41:01.381Z,81.60
2018-04-26T01:43:29.275Z,81.40
2018-04-26T01:45:57.074Z,81.40
2018-04-26T01:48:25.254Z,81.10
2018-04-26T01:50:53.294Z,80.70
2018-04-26T01:53:22.134Z,80.20
2018-04-26T01:55:50.588Z,80.20
2018-04-26T01:58:18.454Z,80.10
2018-04-26T02:00:46.373Z,80.30
2018-04-26T02:03:14.319Z,80.60
2018-04-26T02:05:42.295Z,80.30
2018-04-26T02:08:10.213Z,80.40
2018-04-26T02:10:38.118Z,80.20
2018-04-26T02:13:06.053Z,80.40
2018-04-26T02:15:33.834Z,80.20
2018-04-26T02:18:01.756Z,80.00
2018-04-26T02:20:30.013Z,79.70
2018-04-26T02:22:57.833Z,80.40
2018-04-26T02:25:25.773Z,80.20
2018-04-26T02:27:53.853Z,80.50
2018-04-26T02:30:21.653Z,81.00
2018-04-26T02:32:50.373Z,80.30
2018-04-26T02:35:18.353Z,79.90
2018-04-26T02:37:46.193Z,79.80
2018-04-26T02:40:14.054Z,79.30
2018-04-26T02:42:42.679Z,81.30
2018-04-26T02:45:11.054Z,81.30
2018-04-26T02:47:38.972Z,81.30
2018-04-26T02:50:06.853Z,81.60
2018-04-26T02:52:34.735Z,82.00
2018-04-26T02:55:02.553Z,81.10
2018-04-26T02:57:30.374Z,81.30
2018-04-26T02:59:58.374Z,81.10
2018-04-26T03:02:26.216Z,80.10
2018-04-26T03:04:54.035Z,80.00
2018-04-26T03:07:22.096Z,80.20
2018-04-26T03:09:50.297Z,80.50
2018-04-26T03:12:19.098Z,80.80
2018-04-26T03:14:47.457Z,81.40
2018-04-26T03:17:15.897Z,81.30
2018-04-26T03:19:44.553Z,82.70
2018-04-26T03:22:12.452Z,81.90
2018-04-26T03:24:40.495Z,82.20
2018-04-26T03:27:15.323Z,82.10
2018-04-26T03:29:50.198Z,81.90
2018-04-26T03:32:18.576Z,81.90
2018-04-26T03:34:46.556Z,81.90
2018-04-26T03:37:14.665Z,81.50
2018-04-26T03:39:42.613Z,81.30
2018-04-26T03:42:19.332Z,81.60
2018-04-26T03:44:56.133Z,81.50
2018-04-26T03:47:31.840Z,82.80
2018-04-26T03:50:08.119Z,83.80
2018-04-26T03:52:43.960Z,84.20
2018-04-26T03:55:19.159Z,83.80
2018-04-26T03:57:57.879Z,83.90
2018-04-26T04:00:37.222Z,82.90
2018-04-26T04:03:16.793Z,82.70
2018-04-26T04:08:54.594Z,82.20
2018-04-26T04:11:22.793Z,82.50
2018-04-26T04:13:50.689Z,82.50
2018-04-26T04:16:18.793Z,82.50
2018-04-26T04:18:47.173Z,82.10
2018-04-26T04:21:15.094Z,81.90
2018-04-26T04:23:43.561Z,82.20
2018-04-26T04:26:11.536Z,82.30
2018-04-26T04:28:39.833Z,82.80
2018-04-26T04:31:07.874Z,82.90
2018-04-26T04:33:35.693Z,83.00
2018-04-26T04:36:03.613Z,83.20
2018-04-26T04:38:31.573Z,84.60
2018-04-26T04:40:59.456Z,85.00
2018-04-26T04:43:27.393Z,85.60
2018-04-26T04:45:55.333Z,86.00
2018-04-26T04:48:23.193Z,85.90
2018-04-26T04:50:51.094Z,85.60
2018-04-26T04:53:20.897Z,84.50
2018-04-26T04:55:48.793Z,84.20
2018-04-26T04:58:16.773Z,82.90
2018-04-26T05:00:44.697Z,81.30
2018-04-26T05:03:12.697Z,77.30
2018-04-26T05:05:40.621Z,75.20
2018-04-26T05:08:08.473Z,72.00
2018-04-26T05:10:36.382Z,72.80
2018-04-26T05:13:05.131Z,70.20
2018-04-26T05:15:32.973Z,70.20
2018-04-26T05:18:01.154Z,69.90
2018-04-26T05:20:29.137Z,70.00
2018-04-26T05:22:56.974Z,70.60
2018-04-26T05:25:24.694Z,72.90
2018-04-26T05:27:52.855Z,72.60
2018-04-26T05:30:20.507Z,73.50
2018-04-26T05:32:48.261Z,74.70
2018-04-26T05:35:15.940Z,74.40
2018-04-26T05:37:44.252Z,73.00
2018-04-26T05:40:14.512Z,70.30
2018-04-26T05:42:42.452Z,69.30
2018-04-26T05:45:10.292Z,69.90
2018-04-26T05:47:38.452Z,70.70
2018-04-26T05:50:06.393Z,71.40
2018-04-26T05:52:34.472Z,72.60
2018-04-26T05:55:03.235Z,73.10
2018-04-26T05:57:31.053Z,73.20
2018-04-26T05:59:59.054Z,71.40
2018-04-26T06:02:27.059Z,71.20
2018-04-26T06:04:54.918Z,66.30
2018-04-26T06:07:22.817Z,64.90
2018-04-26T06:09:50.637Z,66.60
2018-04-26T06:12:18.445Z,67.00
2018-04-26T06:17:19.517Z,68.10
2018-04-26T06:19:48.232Z,69.80
2018-04-26T06:22:16.856Z,70.90
2018-04-26T06:24:45.142Z,70.90
2018-04-26T06:27:13.836Z,69.60
2018-04-26T06:29:42.257Z,69.60
2018-04-26T06:32:10.317Z,68.30
2018-04-26T06:34:38.098Z,69.70
2018-04-26T06:37:06.018Z,68.90
2018-04-26T06:39:33.957Z,70.00
2018-04-26T06:42:01.917Z,69.00
2018-04-26T06:44:29.720Z,70.00
2018-04-26T06:46:57.536Z,70.40
2018-04-26T06:49:25.448Z,70.40
2018-04-26T06:51:53.297Z,69.00
2018-04-26T06:54:21.336Z,69.30
2018-04-26T06:56:49.236Z,68.80
2018-04-26T06:59:17.118Z,67.60
2018-04-26T07:01:44.973Z,67.30
2018-04-26T07:04:12.795Z,66.80
2018-04-26T07:06:40.734Z,66.20
2018-04-26T07:09:08.654Z,66.20
2018-04-26T07:11:36.818Z,66.60
2018-04-26T07:14:04.633Z,66.70
2018-04-26T07:16:32.476Z,66.90
2018-04-26T07:19:00.513Z,67.40
2018-04-26T07:21:28.393Z,68.20
2018-04-26T07:23:56.078Z,68.00
2018-04-26T07:26:23.940Z,66.40
2018-04-26T07:28:51.996Z,66.60
2018-04-26T07:31:20.059Z,67.70
2018-04-26T07:33:47.819Z,67.70
2018-04-26T07:36:15.585Z,68.10
2018-04-26T07:38:43.276Z,68.10
2018-04-26T07:41:13.797Z,69.10
2018-04-26T07:43:41.593Z,69.10
2018-04-26T07:46:09.297Z,69.50
2018-04-26T07:48:37.176Z,69.70
2018-04-26T07:51:05.136Z,69.10
2018-04-26T07:53:32.915Z,68.80
2018-04-26T07:56:00.861Z,69.70
2018-04-26T07:58:28.875Z,70.00
2018-04-26T08:00:56.713Z,70.00
2018-04-26T08:03:24.497Z,69.00
2018-04-26T08:05:52.296Z,68.10
2018-04-26T08:08:20.118Z,67.60
2018-04-26T08:10:48.016Z,66.80
2018-04-26T08:13:16.634Z,67.50
2018-04-26T08:15:44.495Z,67.50
2018-04-26T08:18:12.295Z,67.90
2018-04-26T08:20:40.255Z,67.60
2018-04-26T08:23:08.114Z,68.10
2018-04-26T08:25:36.153Z,67.30
2018-04-26T08:28:04.018Z,67.80
2018-04-26T08:30:31.674Z,67.90
2018-04-26T08:32:59.792Z,67.30
2018-04-26T08:35:27.593Z,69.50
2018-04-26T08:37:55.493Z,68.70
2018-04-26T08:40:23.233Z,68.70
2018-04-26T08:42:51.598Z,68.40
2018-04-26T08:45:19.333Z,66.90
2018-04-26T08:47:47.432Z,67.80
2018-04-26T08:50:15.253Z,64.90
2018-04-26T08:52:43.052Z,63.80
2018-04-26T08:55:10.853Z,64.90
2018-04-26T08:57:38.692Z,63.40
2018-04-26T09:00:09.461Z,63.10
2018-04-26T09:02:37.655Z,65.20
2018-04-26T09:05:05.435Z,63.10
2018-04-26T09:07:33.314Z,63.50
2018-04-26T09:10:01.262Z,64.60
2018-04-26T09:12:29.014Z,64.20
2018-04-26T09:14:56.962Z,64.40
2018-04-26T09:17:24.813Z,63.60
2018-04-26T09:19:52.794Z,63.60
2018-04-26T09:22:20.715Z,63.30
2018-04-26T09:24:50.122Z,63.90
2018-04-26T09:27:18.062Z,64.90
2018-04-26T09:29:45.814Z,66.40
2018-04-26T09:32:13.652Z,65.70
2018-04-26T09:34:41.471Z,68.20
2018-04-26T09:37:09.233Z,67.30
2018-04-26T09:39:46.362Z,68.20
2018-04-26T09:42:20.601Z,69.00
2018-04-26T09:44:51.654Z,69.20
2018-04-26T09:47:26.842Z,70.50
2018-04-26T09:50:02.082Z,71.80
2018-04-26T09:52:35.642Z,72.30
2018-04-26T09:55:04.068Z,71.80
2018-04-26T09:57:38.680Z,72.10
2018-04-26T10:00:06.529Z,71.90
2018-04-26T10:02:49.237Z,72.40
2018-04-26T10:05:17.223Z,71.70
2018-04-26T10:07:44.944Z,71.90
2018-04-26T10:10:12.935Z,72.80
2018-04-26T10:12:40.854Z,73.50
2018-04-26T10:15:08.896Z,73.20
2018-04-26T10:17:36.714Z,73.50
2018-04-26T10:20:04.374Z,74.40
2018-04-26T10:22:32.694Z,74.60
2018-04-26T10:25:00.531Z,74.90
2018-04-26T10:27:28.315Z,75.70
2018-04-26T10:29:56.039Z,76.30
2018-04-26T10:32:23.682Z,76.90
2018-04-26T10:34:51.512Z,77.40
2018-04-26T10:37:20.772Z,77.20
2018-04-26T10:39:48.448Z,77.00
2018-04-26T10:42:16.213Z,77.60
2018-04-26T10:44:43.886Z,77.20
2018-04-26T10:47:11.872Z,77.10
2018-04-26T10:49:39.853Z,77.00
2018-04-26T10:52:07.810Z,76.50
2018-04-26T10:54:36.071Z,77.80
2018-04-26T10:57:03.951Z,77.50
2018-04-26T10:59:31.811Z,76.60
2018-04-26T11:01:59.776Z,75.90
2018-04-26T11:04:27.517Z,76.70
2018-04-26T11:06:55.265Z,76.10
2018-04-26T11:09:22.905Z,76.20
2018-04-26T11:11:50.547Z,76.60
2018-04-26T11:14:18.360Z,76.20
2018-04-26T11:16:46.090Z,77.00
2018-04-26T11:19:13.857Z,76.70
2018-04-26T11:21:41.532Z,77.10
2018-04-26T11:24:10.005Z,77.40
2018-04-26T11:26:37.772Z,77.40
2018-04-26T11:29:06.353Z,77.80
2018-04-26T11:31:34.154Z,78.90
2018-04-26T11:34:01.835Z,79.40
2018-04-26T11:36:29.528Z,80.20
2018-04-26T11:38:57.405Z,80.90
2018-04-26T11:41:25.115Z,80.90
2018-04-26T11:43:53.569Z,81.20
2018-04-26T11:46:21.305Z,81.80
2018-04-26T11:48:48.966Z,82.80
2018-04-26T11:51:16.695Z,83.50
2018-04-26T11:53:44.396Z,84.20
2018-04-26T11:56:12.088Z,84.60
2018-04-26T11:58:39.805Z,85.40
2018-04-26T12:01:08.234Z,85.90
2018-04-26T12:03:35.937Z,85.90
2018-04-26T12:06:03.633Z,85.80
2018-04-26T12:08:31.281Z,86.60
2018-04-26T12:10:59.057Z,86.90
2018-04-26T12:13:26.898Z,87.00
2018-04-26T12:15:54.636Z,88.30
2018-04-26T12:18:22.399Z,88.70
2018-04-26T12:20:50.096Z,88.80
2018-04-26T12:23:18.096Z,89.10
2018-04-26T12:25:45.922Z,89.00
2018-04-26T12:28:13.775Z,88.00
2018-04-26T12:30:41.694Z,88.40
2018-04-26T12:33:09.813Z,88.10
2018-04-26T12:35:37.735Z,88.40
2018-04-26T12:38:05.654Z,88.00
2018-04-26T12:40:33.497Z,87.50
2018-04-26T12:43:01.342Z,87.90
2018-04-26T12:45:29.242Z,87.60
2018-04-26T12:47:57.995Z,87.20
2018-04-26T12:50:26.038Z,87.20
2018-04-26T12:52:53.934Z,87.60
2018-04-26T12:55:21.813Z,87.40
2018-04-26T12:57:49.693Z,87.80
2018-04-26T13:00:17.367Z,88.10
2018-04-26T13:02:45.376Z,88.50
2018-04-26T13:05:13.134Z,89.10
2018-04-26T13:07:40.933Z,90.00
2018-04-26T13:10:08.900Z,90.00
2018-04-26T13:12:36.856Z,90.20
2018-04-26T13:15:04.489Z,90.50
2018-04-26T13:17:33.225Z,91.00
2018-04-26T13:20:01.052Z,91.00
2018-04-26T13:22:29.076Z,91.30
2018-04-26T13:24:56.895Z,91.80
2018-04-26T13:27:25.816Z,92.40
2018-04-26T13:29:53.721Z,93.10
2018-04-26T13:32:21.432Z,93.70
2018-04-26T13:34:49.632Z,93.90
2018-04-26T13:37:17.552Z,93.80
2018-04-26T13:39:45.575Z,94.30
2018-04-26T13:42:13.413Z,94.60
2018-04-26T13:44:41.332Z,94.80
2018-04-26T13:47:09.331Z,94.90
2018-04-26T13:49:37.357Z,95.00
2018-04-26T13:52:05.529Z,95.20
2018-04-26T13:54:33.552Z,95.70
2018-04-26T13:57:02.073Z,95.80
2018-04-26T13:59:30.053Z,95.80
2018-04-26T14:01:58.933Z,96.30
2018-04-26T14:04:26.893Z,96.30
2018-04-26T14:06:54.774Z,96.90
2018-04-26T14:09:22.621Z,96.50
2018-04-26T14:11:50.533Z,96.00
2018-04-26T14:14:19.134Z,96.70
2018-04-26T14:16:47.074Z,96.70
2018-04-26T14:19:14.972Z,96.90
2018-04-26T14:21:43.133Z,96.50
2018-04-26T14:24:11.016Z,95.30
2018-04-26T14:26:39.277Z,93.60
2018-04-26T14:29:07.094Z,91.80
2018-04-26T14:31:35.055Z,91.90
2018-04-26T14:34:03.093Z,92.00
2018-04-26T14:36:30.732Z,92.20
2018-04-26T14:38:58.705Z,92.30
2018-04-26T14:41:26.934Z,92.40
2018-04-26T14:43:55.517Z,91.90
2018-04-26T14:46:23.676Z,91.90
2018-04-26T14:48:52.414Z,86.80
2018-04-26T14:51:20.278Z,86.70
2018-04-26T14:53:48.094Z,90.70
2018-04-26T14:56:15.813Z,90.30
2018-04-26T14:58:43.633Z,87.60
2018-04-26T15:01:11.515Z,86.10
2018-04-26T15:03:39.250Z,87.00
2018-04-26T15:06:07.102Z,89.10
2018-04-26T15:08:34.913Z,88.00
2018-04-26T15:11:02.654Z,88.10
2018-04-26T15:13:30.621Z,89.00
2018-04-26T15:15:58.813Z,89.30
2018-04-26T15:18:26.774Z,90.40
2018-04-26T15:20:54.634Z,90.10
2018-04-26T15:23:23.878Z,90.40
2018-04-26T15:25:51.838Z,90.20
2018-04-26T15:28:19.997Z,90.50
2018-04-26T15:30:47.958Z,90.10
2018-04-26T15:33:15.938Z,90.20
2018-04-26T15:35:43.897Z,90.70
2018-04-26T15:38:11.717Z,90.70
2018-04-26T15:40:39.698Z,90.60
2018-04-26T15:43:07.458Z,90.70
2018-04-26T15:45:35.300Z,90.90
2018-04-26T15:48:03.399Z,91.10
2018-04-26T15:53:44.917Z,91.30
2018-04-26T15:59:30.418Z,92.00
2018-04-26T16:02:18.813Z,91.70
2018-04-26T16:04:58.452Z,91.90
2018-04-26T16:07:54.332Z,91.40
2018-04-26T16:13:56.494Z,91.20
2018-04-26T16:16:41.822Z,91.10
2018-04-26T16:19:26.931Z,91.40
2018-04-26T16:22:12.372Z,91.90
2018-04-26T16:24:53.819Z,92.10
2018-04-26T16:27:39.133Z,92.20
2018-04-26T16:30:18.774Z,92.50
2018-04-26T16:33:04.137Z,92.50
2018-04-26T16:35:43.653Z,92.20
2018-04-26T16:38:23.294Z,92.30
2018-04-26T16:40:51.061Z,92.50
2018-04-26T16:43:18.834Z,92.50
2018-04-26T16:45:46.695Z,92.50
2018-04-26T16:48:14.550Z,92.40
2018-04-26T16:50:42.573Z,92.00
2018-04-26T16:53:10.432Z,92.20
2018-04-26T16:55:38.313Z,92.10
2018-04-26T16:58:06.217Z,92.40
2018-04-26T17:00:34.095Z,92.30
2018-04-26T17:03:01.887Z,92.30
2018-04-26T17:05:30.133Z,92.60
2018-04-26T17:07:58.254Z,92.50
2018-04-26T17:10:26.136Z,92.50
2018-04-26T17:12:54.014Z,92.60
2018-04-26T17:15:22.589Z,92.40
2018-04-26T17:17:50.553Z,92.40
2018-04-26T17:20:18.426Z,92.40
2018-04-26T17:22:46.262Z,92.30
2018-04-26T17:25:13.960Z,92.40
2018-04-26T17:27:41.981Z,92.10
2018-04-26T17:30:10.161Z,92.40
2018-04-26T17:32:38.359Z,92.60
2018-04-26T17:35:06.192Z,92.10
2018-04-26T17:37:34.015Z,92.40
2018-04-26T17:40:01.846Z,92.40
2018-04-26T17:42:29.633Z,92.50
2018-04-26T17:44:57.552Z,92.40
2018-04-26T17:47:25.411Z,92.80
2018-04-26T17:49:53.331Z,93.30
2018-04-26T17:52:21.092Z,93.30
2018-04-26T17:54:49.075Z,93.60
2018-04-26T17:57:16.857Z,93.80
2018-04-26T17:59:44.719Z,94.00
2018-04-26T18:02:12.497Z,93.90
2018-04-26T18:04:40.276Z,94.00
2018-04-26T18:07:08.174Z,94.10
2018-04-26T18:09:35.991Z,93.80
2018-04-26T18:12:03.875Z,93.80
2018-04-26T18:14:31.755Z,94.10
2018-04-26T18:16:59.495Z,94.90
2018-04-26T18:19:27.497Z,94.70
2018-04-26T18:21:56.032Z,94.80
2018-04-26T18:24:24.492Z,94.60
2018-04-26T18:26:52.791Z,94.60
2018-04-26T18:29:20.671Z,94.50
2018-04-26T18:31:48.573Z,94.80
2018-04-26T18:34:16.964Z,95.00
2018-04-26T18:36:44.934Z,95.20
2018-04-26T18:39:12.815Z,95.20
2018-04-26T18:41:40.655Z,95.40
2018-04-26T18:44:08.513Z,95.50
2018-04-26T18:46:36.245Z,95.30
2018-04-26T18:49:04.080Z,95.30
2018-04-26T18:51:31.760Z,95.30
2018-04-26T18:53:59.560Z,95.30
2018-04-26T18:56:27.514Z,95.50
2018-04-26T18:58:55.255Z,95.70
2018-04-26T19:03:57.034Z,95.00
2018-04-26T19:06:24.914Z,95.00
2018-04-26T19:08:52.778Z,95.00
2018-04-26T19:11:20.537Z,95.10
2018-04-26T19:13:48.495Z,94.80
2018-04-26T19:16:16.266Z,94.90
2018-04-26T19:18:43.998Z,95.10
2018-04-26T19:21:12.478Z,94.90
2018-04-26T19:23:40.444Z,94.40
2018-04-26T19:26:08.279Z,94.50
2018-04-26T19:28:37.985Z,94.80
2018-04-26T19:31:05.934Z,95.20
2018-04-26T19:33:36.135Z,96.00
2018-04-26T19:36:03.936Z,96.00
2018-04-26T19:38:31.844Z,95.80
2018-04-26T19:40:59.779Z,95.80
2018-04-26T19:43:27.499Z,96.00
2018-04-26T19:45:55.356Z,95.90
2018-04-26T19:48:24.156Z,96.10
2018-04-26T19:50:52.033Z,96.10
2018-04-26T19:53:19.936Z,96.40
2018-04-26T19:55:48.053Z,96.60
2018-04-26T19:58:15.899Z,96.80
2018-04-26T20:00:43.572Z,97.00
2018-04-26T20:03:13.281Z,97.20
2018-04-26T20:05:40.989Z,97.40
2018-04-26T20:08:08.711Z,97.60
2018-04-26T20:10:36.717Z,97.70
2018-04-26T20:13:04.545Z,97.80
2018-04-26T20:15:32.401Z,97.50
2018-04-26T20:18:00.973Z,97.20
2018-04-26T20:20:28.875Z,97.20
2018-04-26T20:25:29.793Z,97.00
2018-04-26T20:27:57.594Z,97.00
2018-04-26T20:30:25.378Z,96.90
2018-04-26T20:32:53.594Z,96.60
2018-04-26T20:35:21.458Z,96.60
2018-04-26T20:37:49.537Z,96.50
2018-04-26T20:40:17.816Z,96.50
2018-04-26T20:42:45.857Z,96.50
2018-04-26T20:45:14.148Z,96.50
2018-04-26T20:47:42.101Z,96.20
2018-04-26T20:50:10.778Z,96.10
2018-04-26T20:52:38.857Z,96.10
2018-04-26T20:55:07.098Z,95.80
2018-04-26T20:57:35.119Z,95.80
2018-04-26T21:00:03.117Z,93.50
2018-04-26T21:02:31.255Z,95.30
2018-04-26T21:04:59.196Z,96.10
2018-04-26T21:07:27.494Z,96.30
2018-04-26T21:09:55.416Z,96.30
2018-04-26T21:12:23.374Z,96.70
2018-04-26T21:14:52.101Z,97.10
2018-04-26T21:17:20.375Z,97.10
2018-04-26T21:19:49.974Z,97.10
2018-04-26T21:22:17.815Z,97.00
2018-04-26T21:24:46.130Z,97.00
2018-04-26T21:27:13.855Z,97.00
2018-04-26T21:29:41.894Z,97.30
2018-04-26T21:32:11.395Z,96.90
2018-04-26T21:34:39.854Z,96.80
2018-04-26T21:37:07.674Z,96.90
2018-04-26T21:39:35.489Z,97.00
2018-04-26T21:42:04.414Z,97.00
2018-04-26T21:44:32.315Z,96.90
2018-04-26T21:47:00.256Z,97.10
2018-04-26T21:49:27.476Z,97.20
2018-04-26T21:52:00.889Z,97.10
2018-04-26T21:54:34.405Z,97.20
2018-04-26T21:57:07.855Z,97.20
2018-04-26T21:59:41.273Z,97.10
2018-04-26T22:02:14.995Z,97.00
2018-04-26T22:04:48.835Z,96.90
2018-04-26T22:07:16.692Z,96.80
2018-04-26T22:09:44.655Z,96.80
2018-04-26T22:12:12.535Z,96.80
2018-04-26T22:14:40.964Z,96.90
2018-04-26T22:17:08.898Z,96.90
2018-04-26T22:19:36.875Z,97.10
2018-04-26T22:22:04.815Z,97.30
2018-04-26T22:24:32.737Z,97.30
2018-04-26T22:27:00.797Z,97.30
2018-04-26T22:29:28.716Z,97.40
2018-04-26T22:31:56.895Z,97.50
2018-04-26T22:34:25.617Z,97.70
2018-04-26T22:36:53.601Z,97.60
2018-04-26T22:39:21.795Z,97.50
2018-04-26T22:41:49.778Z,97.60
2018-04-26T22:44:22.271Z,97.80
2018-04-26T22:46:56.760Z,97.90
2018-04-26T22:49:31.960Z,98.10
2018-04-26T22:52:07.800Z,98.10
2018-04-26T22:54:44.920Z,98.10
2018-04-26T22:57:20.121Z,98.00
2018-04-26T22:59:55.642Z,97.90
2018-04-26T23:02:23.597Z,97.90
2018-04-26T23:04:51.737Z,97.80
2018-04-26T23:07:20.217Z,97.60
2018-04-26T23:09:48.757Z,97.40
2018-04-26T23:12:16.557Z,97.20
2018-04-26T23:14:44.559Z,97.00
2018-04-26T23:17:13.535Z,96.80
2018-04-26T23:19:41.654Z,96.80
2018-04-26T23:22:09.794Z,96.80
2018-04-26T23:24:37.697Z,96.60
2018-04-26T23:27:05.920Z,96.50
2018-04-26T23:29:33.974Z,96.40
2018-04-26T23:32:02.674Z,96.20
2018-04-26T23:34:30.614Z,96.10
2018-04-26T23:36:58.554Z,96.00
2018-04-26T23:39:26.654Z,96.00
2018-04-26T23:41:55.393Z,96.20
2018-04-26T23:44:23.274Z,96.20
2018-04-26T23:46:51.174Z,96.20
2018-04-26T23:49:19.114Z,96.20
2018-04-26T23:51:47.014Z,96.20
2018-04-26T23:54:14.996Z,96.10
2018-04-26T23:56:42.954Z,96.10
2018-04-26T23:59:11.015Z,96.10
